createdAt,value
2022-08-02T00:00:55.565Z,18.62000084
2022-08-02T00:01:53.000Z,18.57999992
2022-08-02T00:02:48.945Z,18.55999947
2022-08-02T00:03:53.254Z,18.5
2022-08-02T00:04:49.191Z,18.45000076
2022-08-02T00:05:53.118Z,18.43000031
2022-08-02T00:06:47.300Z,18.38999939
2022-08-02T00:07:47.919Z,18.42000008
2022-08-02T00:08:44.083Z,18.38999939
2022-08-02T00:09:43.983Z,18.37999916
2022-08-02T00:10:40.559Z,18.36000061
2022-08-02T00:11:45.633Z,18.32999992
2022-08-02T00:12:42.157Z,18.31999969
2022-08-02T00:13:44.475Z,18.29000092
2022-08-02T00:14:37.010Z,18.26000023
2022-08-02T00:15:37.304Z,18.26000023
2022-08-02T00:16:38.578Z,18.23999977
2022-08-02T00:17:40.400Z,18.25
2022-08-02T00:18:37.246Z,18.21999931
2022-08-02T00:19:46.102Z,18.19000053
2022-08-02T00:20:39.311Z,18.17000008
2022-08-02T00:21:44.948Z,18.17000008
2022-08-02T00:22:41.680Z,18.20999908
2022-08-02T00:24:03.225Z,18.20000076
2022-08-02T00:24:28.099Z,18.20000076
2022-08-02T00:24:28.276Z,18.20000076
2022-08-02T00:24:41.415Z,18.21999931
2022-08-02T00:25:54.952Z,18.26000023
2022-08-02T00:25:55.030Z,18.26000023
2022-08-02T00:25:55.131Z,18.26000023
2022-08-02T00:26:40.488Z,18.28000069
2022-08-02T00:27:38.429Z,18.34000015
2022-08-02T00:28:41.000Z,18.29999924
2022-08-02T00:29:35.173Z,18.28000069
2022-08-02T00:29:50.368Z,18.28000069
2022-08-02T00:29:52.608Z,18.28000069
2022-08-02T00:30:35.237Z,18.27000046
2022-08-02T00:31:30.673Z,18.29999924
2022-08-02T00:32:31.314Z,18.32999992
2022-08-02T00:34:26.817Z,18.29999924
2022-08-02T00:34:28.313Z,18.29999924
2022-08-02T00:34:28.495Z,18.29999924
2022-08-02T00:34:33.011Z,18.29000092
2022-08-02T00:34:37.919Z,18.29000092
2022-08-02T00:35:26.376Z,18.35000038
2022-08-02T00:36:23.366Z,18.36000061
2022-08-02T00:38:21.653Z,18.32999992
2022-08-02T00:39:33.482Z,18.29999924
2022-08-02T00:39:33.955Z,18.29999924
2022-08-02T00:39:34.939Z,18.29999924
2022-08-02T00:40:31.137Z,18.29999924
2022-08-02T00:41:35.260Z,18.29000092
2022-08-02T00:43:31.512Z,18.27000046
2022-08-02T00:44:27.119Z,18.22999954
2022-08-02T00:46:02.189Z,18.18000031
2022-08-02T00:46:02.255Z,18.18000031
2022-08-02T00:46:02.546Z,18.18000031
2022-08-02T00:47:25.581Z,18.29000092
2022-08-02T00:48:24.078Z,18.35000038
2022-08-02T00:49:25.121Z,18.35000038
2022-08-02T00:50:22.241Z,18.31999969
2022-08-02T00:52:07.992Z,18.32999992
2022-08-02T00:53:48.953Z,18.35000038
2022-08-02T00:54:48.717Z,18.31999969
2022-08-02T00:55:42.982Z,18.27000046
2022-08-02T00:56:49.684Z,18.25
2022-08-02T00:56:49.998Z,18.25
2022-08-02T00:57:41.556Z,18.25
2022-08-02T00:58:37.893Z,18.25
2022-08-02T00:59:37.636Z,18.20999908
2022-08-02T01:00:37.144Z,18.19000053
2022-08-02T01:01:32.617Z,18.14999962
2022-08-02T01:02:33.156Z,18.15999985
2022-08-02T01:03:28.401Z,18.12999916
2022-08-02T01:04:32.241Z,18.11000061
2022-08-02T01:05:29.667Z,18.07999992
2022-08-02T01:06:26.156Z,18.05999947
2022-08-02T01:07:32.455Z,18.06999969
2022-08-02T01:08:29.568Z,18.04999924
2022-08-02T01:09:29.560Z,18.05999947
2022-08-02T01:10:22.272Z,18.06999969
2022-08-02T01:11:25.789Z,18.06999969
2022-08-02T01:12:20.259Z,18.07999992
2022-08-02T01:14:18.275Z,18.05999947
2022-08-02T01:15:15.638Z,18.05999947
2022-08-02T01:16:17.059Z,18.06999969
2022-08-02T01:17:13.144Z,18.06999969
2022-08-02T01:19:16.170Z,18
2022-08-02T01:20:13.927Z,17.97999954
2022-08-02T01:21:11.072Z,17.96999931
2022-08-02T01:22:14.245Z,17.97999954
2022-08-02T01:23:16.747Z,18.01000023
2022-08-02T01:24:19.966Z,18
2022-08-02T01:25:20.934Z,17.97999954
2022-08-02T01:26:16.490Z,17.95999908
2022-08-02T01:27:18.381Z,17.93000031
2022-08-02T01:28:13.774Z,17.95000076
2022-08-02T01:29:11.820Z,17.95000076
2022-08-02T01:30:18.206Z,17.94000053
2022-08-02T01:31:15.283Z,17.92000008
2022-08-02T01:32:13.689Z,17.90999985
2022-08-02T01:33:09.379Z,17.90999985
2022-08-02T01:34:12.572Z,17.87999916
2022-08-02T01:35:08.186Z,17.88999939
2022-08-02T01:36:08.247Z,17.87000084
2022-08-02T01:37:03.535Z,17.86000061
2022-08-02T01:38:00.386Z,17.87000084
2022-08-02T01:39:04.075Z,17.84000015
2022-08-02T01:39:56.064Z,17.82999992
2022-08-02T01:41:00.076Z,17.81999969
2022-08-02T01:42:28.650Z,17.84000015
2022-08-02T01:43:08.165Z,17.87000084
2022-08-02T01:44:08.110Z,17.89999962
2022-08-02T01:45:08.350Z,17.90999985
2022-08-02T01:46:04.232Z,17.89999962
2022-08-02T01:47:06.871Z,17.88999939
2022-08-02T01:48:04.992Z,17.88999939
2022-08-02T01:49:02.768Z,17.86000061
2022-08-02T01:50:07.899Z,17.80999947
2022-08-02T01:51:08.528Z,17.78000069
2022-08-02T01:52:05.104Z,17.77000046
2022-08-02T01:54:00.893Z,17.77000046
2022-08-02T01:55:00.662Z,17.75
2022-08-02T01:55:59.093Z,17.76000023
2022-08-02T01:56:59.581Z,17.75
2022-08-02T01:58:56.637Z,17.77000046
2022-08-02T01:59:51.085Z,17.77000046
2022-08-02T02:00:49.028Z,17.78000069
2022-08-02T02:01:48.785Z,17.76000023
2022-08-02T02:02:46.229Z,17.77000046
2022-08-02T02:03:49.571Z,17.73999977
2022-08-02T02:04:44.729Z,17.71999931
2022-08-02T02:05:46.148Z,17.72999954
2022-08-02T02:06:43.869Z,17.70999908
2022-08-02T02:07:43.033Z,17.73999977
2022-08-02T02:08:38.794Z,17.73999977
2022-08-02T02:09:50.197Z,17.70000076
2022-08-02T02:09:51.041Z,17.70000076
2022-08-02T02:10:46.975Z,17.70000076
2022-08-02T02:12:06.256Z,17.70999908
2022-08-02T02:12:11.479Z,17.70999908
2022-08-02T02:12:14.715Z,17.70999908
2022-08-02T02:12:42.165Z,17.78000069
2022-08-02T02:13:40.686Z,17.80999947
2022-08-02T02:14:49.982Z,17.79999924
2022-08-02T02:14:51.460Z,17.79999924
2022-08-02T02:15:38.577Z,17.80999947
2022-08-02T02:16:33.641Z,17.80999947
2022-08-02T02:17:50.660Z,17.84000015
2022-08-02T02:17:52.855Z,17.84000015
2022-08-02T02:18:10.853Z,17.84000015
2022-08-02T02:18:32.377Z,17.86000061
2022-08-02T02:19:33.532Z,17.86000061
2022-08-02T02:20:31.972Z,17.85000038
2022-08-02T02:21:29.428Z,17.82999992
2022-08-02T02:22:33.011Z,17.81999969
2022-08-02T02:23:35.547Z,17.79000092
2022-08-02T02:24:28.531Z,17.76000023
2022-08-02T02:25:36.170Z,17.73999977
2022-08-02T02:25:36.453Z,17.73999977
2022-08-02T02:25:41.814Z,17.73999977
2022-08-02T02:26:30.957Z,17.76000023
2022-08-02T02:27:26.225Z,17.81999969
2022-08-02T02:28:28.909Z,17.79999924
2022-08-02T02:29:23.768Z,17.77000046
2022-08-02T02:30:23.467Z,17.72999954
2022-08-02T02:31:19.866Z,17.69000053
2022-08-02T02:32:23.071Z,17.70999908
2022-08-02T02:33:21.240Z,17.75
2022-08-02T02:34:23.015Z,17.73999977
2022-08-02T02:35:26.884Z,17.71999931
2022-08-02T02:36:21.921Z,17.70999908
2022-08-02T02:37:21.443Z,17.70999908
2022-08-02T02:39:16.899Z,17.67000008
2022-08-02T02:40:14.857Z,17.62999916
2022-08-02T02:41:14.142Z,17.60000038
2022-08-02T02:42:12.591Z,17.59000015
2022-08-02T02:44:07.457Z,17.56999969
2022-08-02T02:45:04.487Z,17.55999947
2022-08-02T02:46:56.439Z,17.60000038
2022-08-02T02:47:40.417Z,17.68000031
2022-08-02T02:48:37.786Z,17.69000053
2022-08-02T02:49:47.137Z,17.69000053
2022-08-02T02:50:43.288Z,17.64999962
2022-08-02T02:51:45.372Z,17.62999916
2022-08-02T02:54:30.113Z,17.60000038
2022-08-02T02:54:31.015Z,17.60000038
2022-08-02T02:54:32.170Z,17.60000038
2022-08-02T02:54:43.361Z,17.62000084
2022-08-02T02:55:39.855Z,17.64999962
2022-08-02T02:56:41.811Z,17.64999962
2022-08-02T02:57:36.361Z,17.65999985
2022-08-02T02:58:37.875Z,17.62000084
2022-08-02T02:59:33.108Z,17.57999992
2022-08-02T03:00:33.780Z,17.54999924
2022-08-02T03:01:55.353Z,17.52000046
2022-08-02T03:01:55.602Z,17.52000046
2022-08-02T03:01:56.575Z,17.52000046
2022-08-02T03:02:32.064Z,17.54000092
2022-08-02T03:03:27.954Z,17.56999969
2022-08-02T03:04:27.657Z,17.55999947
2022-08-02T03:04:55.620Z,17.55999947
2022-08-02T03:04:56.192Z,17.55999947
2022-08-02T03:05:25.887Z,17.55999947
2022-08-02T03:06:24.967Z,17.57999992
2022-08-02T03:07:29.661Z,17.61000061
2022-08-02T03:09:27.170Z,17.57999992
2022-08-02T03:10:23.537Z,17.54999924
2022-08-02T03:11:29.004Z,17.51000023
2022-08-02T03:12:32.001Z,17.51000023
2022-08-02T03:12:32.276Z,17.51000023
2022-08-02T03:13:33.047Z,17.48999977
2022-08-02T03:13:33.306Z,17.48999977
2022-08-02T03:13:37.552Z,17.48999977
2022-08-02T03:14:26.451Z,17.5
2022-08-02T03:15:21.239Z,17.51000023
2022-08-02T03:16:23.501Z,17.48999977
2022-08-02T03:17:16.020Z,17.47999954
2022-08-02T03:19:10.619Z,17.43000031
2022-08-02T03:20:09.737Z,17.39999962
2022-08-02T03:21:06.186Z,17.37999916
2022-08-02T03:22:10.445Z,17.36000061
2022-08-02T03:24:09.150Z,17.34000015
2022-08-02T03:25:09.493Z,17.32999992
2022-08-02T03:26:05.687Z,17.30999947
2022-08-02T03:27:09.086Z,17.29000092
2022-08-02T03:28:01.352Z,17.30999947
2022-08-02T03:29:01.772Z,17.29999924
2022-08-02T03:29:10.168Z,17.29999924
2022-08-02T03:30:00.380Z,17.30999947
2022-08-02T03:30:56.019Z,17.31999969
2022-08-02T03:31:53.267Z,17.30999947
2022-08-02T03:32:56.561Z,17.34000015
2022-08-02T03:33:50.830Z,17.29999924
2022-08-02T03:34:52.392Z,17.28000069
2022-08-02T03:36:37.329Z,17.32999992
2022-08-02T03:37:19.537Z,17.40999985
2022-08-02T03:38:16.642Z,17.44000053
2022-08-02T03:39:16.045Z,17.40999985
2022-08-02T03:40:12.359Z,17.37000084
2022-08-02T03:41:11.956Z,17.32999992
2022-08-02T03:42:10.694Z,17.30999947
2022-08-02T03:42:15.661Z,17.30999947
2022-08-02T03:44:03.573Z,17.30999947
2022-08-02T03:45:08.723Z,17.28000069
2022-08-02T03:45:59.849Z,17.27000046
2022-08-02T03:46:57.432Z,17.26000023
2022-08-02T03:48:02.869Z,17.28000069
2022-08-02T03:48:33.802Z,17.28000069
2022-08-02T03:48:33.803Z,17.28000069
2022-08-02T03:49:02.503Z,17.29000092
2022-08-02T03:50:04.592Z,17.31999969
2022-08-02T03:50:57.853Z,17.31999969
2022-08-02T03:51:57.762Z,17.31999969
2022-08-02T03:52:55.685Z,17.31999969
2022-08-02T03:53:57.809Z,17.28000069
2022-08-02T03:54:53.195Z,17.25
2022-08-02T03:55:56.008Z,17.21999931
2022-08-02T03:56:48.890Z,17.21999931
2022-08-02T03:57:45.046Z,17.22999954
2022-08-02T03:58:49.272Z,17.20999908
2022-08-02T03:59:42.254Z,17.19000053
2022-08-02T04:00:43.006Z,17.18000031
2022-08-02T04:01:39.522Z,17.17000008
2022-08-02T04:02:42.800Z,17.18000031
2022-08-02T04:03:40.930Z,17.17000008
2022-08-02T04:04:47.172Z,17.14999962
2022-08-02T04:06:01.016Z,17.13999939
2022-08-02T04:06:03.367Z,17.13999939
2022-08-02T04:06:04.053Z,17.13999939
2022-08-02T04:06:44.703Z,17.20000076
2022-08-02T04:08:42.937Z,17.34000015
2022-08-02T04:09:35.365Z,17.34000015
2022-08-02T04:10:40.197Z,17.31999969
2022-08-02T04:11:34.605Z,17.29999924
2022-08-02T04:12:37.029Z,17.30999947
2022-08-02T04:14:43.373Z,17.36000061
2022-08-02T04:15:26.441Z,17.40999985
2022-08-02T04:16:25.451Z,17.40999985
2022-08-02T04:17:26.730Z,17.40999985
2022-08-02T04:18:29.680Z,17.39999962
2022-08-02T04:19:34.251Z,17.34000015
2022-08-02T04:20:32.395Z,17.31999969
2022-08-02T04:21:48.593Z,17.28000069
2022-08-02T04:21:51.134Z,17.28000069
2022-08-02T04:21:51.201Z,17.28000069
2022-08-02T04:23:36.023Z,17.34000015
2022-08-02T04:24:34.381Z,17.35000038
2022-08-02T04:25:40.595Z,17.35000038
2022-08-02T04:26:37.187Z,17.34000015
2022-08-02T04:27:50.478Z,17.37999916
2022-08-02T04:27:50.596Z,17.37999916
2022-08-02T04:29:33.556Z,17.46999931
2022-08-02T04:30:35.476Z,17.5
2022-08-02T04:31:33.710Z,17.52000046
2022-08-02T04:32:38.338Z,17.51000023
2022-08-02T04:33:35.998Z,17.48999977
2022-08-02T04:34:37.374Z,17.45999908
2022-08-02T04:35:34.386Z,17.43000031
2022-08-02T04:36:42.433Z,17.40999985
2022-08-02T04:37:36.923Z,17.42000008
2022-08-02T04:38:39.132Z,17.40999985
2022-08-02T04:39:35.277Z,17.40999985
2022-08-02T04:40:36.692Z,17.38999939
2022-08-02T04:41:34.751Z,17.37000084
2022-08-02T04:41:44.027Z,17.37000084
2022-08-02T04:43:37.471Z,17.45000076
2022-08-02T04:44:41.715Z,17.45000076
2022-08-02T04:45:37.972Z,17.44000053
2022-08-02T04:46:38.564Z,17.44000053
2022-08-02T04:48:37.467Z,17.46999931
2022-08-02T04:49:40.419Z,17.51000023
2022-08-02T04:50:43.126Z,17.51000023
2022-08-02T04:51:44.943Z,17.51000023
2022-08-02T04:52:45.925Z,17.51000023
2022-08-02T04:53:41.041Z,17.53000069
2022-08-02T04:55:06.222Z,17.53000069
2022-08-02T04:55:47.076Z,17.54999924
2022-08-02T04:56:47.154Z,17.59000015
2022-08-02T04:57:52.585Z,17.61000061
2022-08-02T04:57:53.363Z,17.61000061
2022-08-02T04:58:47.210Z,17.62000084
2022-08-02T04:59:49.450Z,17.62999916
2022-08-02T04:59:54.600Z,17.62999916
2022-08-02T05:00:49.483Z,17.65999985
2022-08-02T05:01:48.458Z,17.68000031
2022-08-02T05:02:49.759Z,17.70999908
2022-08-02T05:03:46.807Z,17.68000031
2022-08-02T05:04:45.430Z,17.68000031
2022-08-02T05:05:40.775Z,17.67000008
2022-08-02T05:06:40.864Z,17.67000008
2022-08-02T05:07:38.952Z,17.68000031
2022-08-02T05:08:40.956Z,17.68000031
2022-08-02T05:09:38.917Z,17.65999985
2022-08-02T05:10:40.152Z,17.65999985
2022-08-02T05:11:38.704Z,17.64999962
2022-08-02T05:12:34.411Z,17.67000008
2022-08-02T05:13:36.064Z,17.65999985
2022-08-02T05:13:58.469Z,17.65999985
2022-08-02T05:13:58.863Z,17.65999985
2022-08-02T05:14:35.771Z,17.67000008
2022-08-02T05:15:33.378Z,17.70000076
2022-08-02T05:16:32.351Z,17.72999954
2022-08-02T05:17:29.289Z,17.73999977
2022-08-02T05:18:33.968Z,17.73999977
2022-08-02T05:19:30.417Z,17.71999931
2022-08-02T05:20:30.118Z,17.70999908
2022-08-02T05:21:29.015Z,17.69000053
2022-08-02T05:22:25.143Z,17.69000053
2022-08-02T05:23:25.320Z,17.69000053
2022-08-02T05:24:20.744Z,17.68000031
2022-08-02T05:25:25.183Z,17.68000031
2022-08-02T05:26:18.674Z,17.68000031
2022-08-02T05:27:22.208Z,17.68000031
2022-08-02T05:28:14.785Z,17.71999931
2022-08-02T05:29:18.235Z,17.70999908
2022-08-02T05:30:11.718Z,17.70999908
2022-08-02T05:30:45.372Z,17.72999954
2022-08-02T05:31:43.752Z,17.75
2022-08-02T05:32:41.743Z,17.77000046
2022-08-02T05:34:26.106Z,17.86000061
2022-08-02T05:35:06.489Z,17.89999962
2022-08-02T05:36:04.586Z,17.95000076
2022-08-02T05:37:04.117Z,17.95000076
2022-08-02T05:37:09.735Z,17.95000076
2022-08-02T05:37:59.236Z,17.97999954
2022-08-02T05:38:59.027Z,17.97999954
2022-08-02T05:39:05.012Z,17.97999954
2022-08-02T05:39:56.942Z,17.98999977
2022-08-02T05:40:55.023Z,18
2022-08-02T05:41:51.463Z,18.02000046
2022-08-02T05:42:46.615Z,18.03000069
2022-08-02T05:43:46.224Z,18.03000069
2022-08-02T05:44:41.825Z,18.03000069
2022-08-02T05:45:41.157Z,18.02000046
2022-08-02T05:46:35.787Z,18
2022-08-02T05:47:37.084Z,18.03000069
2022-08-02T05:48:34.246Z,18.03000069
2022-08-02T05:49:32.372Z,18.01000023
2022-08-02T05:50:30.661Z,18.02000046
2022-08-02T05:51:25.112Z,18.03000069
2022-08-02T05:52:27.212Z,18.03000069
2022-08-02T05:53:19.741Z,18.05999947
2022-08-02T05:54:19.298Z,18.07999992
2022-08-02T05:55:17.421Z,18.07999992
2022-08-02T05:56:14.174Z,18.11000061
2022-08-02T05:57:11.556Z,18.12000084
2022-08-02T05:59:06.850Z,18.14999962
2022-08-02T06:00:06.539Z,18.17000008
2022-08-02T06:01:01.623Z,18.20999908
2022-08-02T06:02:01.131Z,18.21999931
2022-08-02T06:02:56.454Z,18.26000023
2022-08-02T06:03:59.765Z,18.28000069
2022-08-02T06:04:53.009Z,18.29999924
2022-08-02T06:05:54.333Z,18.32999992
2022-08-02T06:06:47.949Z,18.35000038
2022-08-02T06:08:33.185Z,18.48999977
2022-08-02T06:09:12.640Z,18.56999969
2022-08-02T06:10:12.661Z,18.62999916
2022-08-02T06:11:07.679Z,18.65999985
2022-08-02T06:12:04.881Z,18.67000008
2022-08-02T06:13:04.390Z,18.65999985
2022-08-02T06:13:59.409Z,18.65999985
2022-08-02T06:14:58.080Z,18.69000053
2022-08-02T06:15:56.143Z,18.70000076
2022-08-02T06:16:50.799Z,18.70999908
2022-08-02T06:17:50.615Z,18.73999977
2022-08-02T06:18:52.503Z,18.73999977
2022-08-02T06:19:51.839Z,18.77000046
2022-08-02T06:20:47.503Z,18.80999947
2022-08-02T06:22:31.753Z,18.85000038
2022-08-02T06:22:32.032Z,18.85000038
2022-08-02T06:22:37.543Z,18.85000038
2022-08-02T06:22:43.721Z,18.90999985
2022-08-02T06:23:38.678Z,19
2022-08-02T06:24:40.941Z,19.02000046
2022-08-02T06:25:49.620Z,19.05999947
2022-08-02T06:25:49.985Z,19.05999947
2022-08-02T06:25:50.888Z,19.05999947
2022-08-02T06:26:36.030Z,19.11000061
2022-08-02T06:27:31.250Z,19.17000008
2022-08-02T06:29:28.498Z,19.20000076
2022-08-02T06:30:23.793Z,19.20000076
2022-08-02T06:31:23.978Z,19.22999954
2022-08-02T06:32:19.254Z,19.26000023
2022-08-02T06:34:14.200Z,19.29999924
2022-08-02T06:35:13.752Z,19.31999969
2022-08-02T06:36:08.711Z,19.31999969
2022-08-02T06:37:08.815Z,19.35000038
2022-08-02T06:39:03.961Z,19.40999985
2022-08-02T06:39:59.348Z,19.42000008
2022-08-02T06:40:59.258Z,19.44000053
2022-08-02T06:41:54.506Z,19.47999954
2022-08-02T06:43:18.207Z,19.51000023
2022-08-02T06:43:58.508Z,19.55999947
2022-08-02T06:44:58.022Z,19.62000084
2022-08-02T06:45:56.828Z,19.62999916
2022-08-02T06:47:08.329Z,19.62999916
2022-08-02T06:47:09.269Z,19.62999916
2022-08-02T06:47:10.872Z,19.70999908
2022-08-02T06:47:11.634Z,19.70999908
2022-08-02T06:47:11.970Z,19.70999908
2022-08-02T06:47:54.912Z,19.79000092
2022-08-02T06:48:51.505Z,19.86000061
2022-08-02T06:49:54.162Z,19.90999985
2022-08-02T06:50:49.031Z,19.92000008
2022-08-02T06:51:48.484Z,19.94000053
2022-08-02T06:53:42.792Z,19.95999908
2022-08-02T06:54:45.940Z,19.96999931
2022-08-02T06:55:43.347Z,19.98999977
2022-08-02T06:56:40.645Z,20.04000092
2022-08-02T06:57:36.821Z,20.04999924
2022-08-02T06:58:38.053Z,20.07999992
2022-08-02T06:59:33.784Z,20.10000038
2022-08-02T07:00:35.084Z,20.13999939
2022-08-02T07:01:38.676Z,20.21999931
2022-08-02T07:01:38.817Z,20.21999931
2022-08-02T07:02:30.719Z,20.26000023
2022-08-02T07:03:30.833Z,20.30999947
2022-08-02T07:04:26.729Z,20.35000038
2022-08-02T07:05:27.661Z,20.36000061
2022-08-02T07:06:23.926Z,20.37999916
2022-08-02T07:07:22.292Z,20.40999985
2022-08-02T07:08:22.847Z,20.40999985
2022-08-02T07:09:20.929Z,20.44000053
2022-08-02T07:10:20.004Z,20.46999931
2022-08-02T07:11:16.117Z,20.5
2022-08-02T07:12:19.949Z,20.52000046
2022-08-02T07:13:15.113Z,20.54999924
2022-08-02T07:14:18.024Z,20.60000038
2022-08-02T07:15:11.673Z,20.62000084
2022-08-02T07:16:15.275Z,20.67000008
2022-08-02T07:17:10.378Z,20.70999908
2022-08-02T07:19:07.763Z,20.78000069
2022-08-02T07:20:11.501Z,20.80999947
2022-08-02T07:21:05.845Z,20.84000015
2022-08-02T07:22:33.305Z,20.87999916
2022-08-02T07:23:13.327Z,20.92000008
2022-08-02T07:24:13.910Z,20.98999977
2022-08-02T07:25:09.765Z,21.02000046
2022-08-02T07:26:10.546Z,21.05999947
2022-08-02T07:27:11.522Z,21.07999992
2022-08-02T07:27:12.540Z,21.07999992
2022-08-02T07:28:05.170Z,21.10000038
2022-08-02T07:29:05.734Z,21.13999939
2022-08-02T07:30:01.917Z,21.19000053
2022-08-02T07:31:02.488Z,21.22999954
2022-08-02T07:31:58.645Z,21.27000046
2022-08-02T07:33:56.092Z,21.35000038
2022-08-02T07:34:56.835Z,21.40999985
2022-08-02T07:35:53.156Z,21.45999908
2022-08-02T07:36:54.266Z,21.48999977
2022-08-02T07:38:51.731Z,21.57999992
2022-08-02T07:39:48.419Z,21.62999916
2022-08-02T07:40:49.366Z,21.67000008
2022-08-02T07:41:45.748Z,21.71999931
2022-08-02T07:43:44.182Z,21.79000092
2022-08-02T07:44:49.122Z,21.80999947
2022-08-02T07:45:54.216Z,21.87000084
2022-08-02T07:45:55.751Z,21.87000084
2022-08-02T07:45:59.668Z,21.87000084
2022-08-02T07:46:43.964Z,21.94000053
2022-08-02T07:47:40.492Z,22
2022-08-02T07:49:38.250Z,22.07999992
2022-08-02T07:50:37.628Z,22.12000084
2022-08-02T07:51:41.111Z,22.13999939
2022-08-02T07:52:35.619Z,22.14999962
2022-08-02T07:53:50.757Z,22.20999908
2022-08-02T07:53:50.771Z,22.20999908
2022-08-02T07:53:51.273Z,22.20999908
2022-08-02T07:54:36.616Z,22.26000023
2022-08-02T07:55:39.641Z,22.34000015
2022-08-02T07:55:39.726Z,22.34000015
2022-08-02T07:56:35.329Z,22.39999962
2022-08-02T07:57:33.316Z,22.44000053
2022-08-02T07:59:30.853Z,22.5
2022-08-02T08:00:35.057Z,22.52000046
2022-08-02T08:01:29.465Z,22.55999947
2022-08-02T08:02:33.346Z,22.55999947
2022-08-02T08:03:27.974Z,22.56999969
2022-08-02T08:04:29.644Z,22.61000061
2022-08-02T08:05:26.477Z,22.62999916
2022-08-02T08:06:28.926Z,22.65999985
2022-08-02T08:08:05.084Z,22.79000092
2022-08-02T08:09:03.200Z,23.05999947
2022-08-02T08:10:04.823Z,23.27000046
2022-08-02T08:11:02.140Z,23.36000061
2022-08-02T08:12:04.188Z,23.37999916
2022-08-02T08:13:28.958Z,23.30999947
2022-08-02T08:14:13.438Z,23.31999969
2022-08-02T08:14:16.833Z,23.31999969
2022-08-02T08:15:10.737Z,23.36000061
2022-08-02T08:16:06.728Z,23.37999916
2022-08-02T08:17:05.334Z,23.37000084
2022-08-02T08:18:05.745Z,23.32999992
2022-08-02T08:19:01.885Z,23.32999992
2022-08-02T08:20:02.469Z,23.34000015
2022-08-02T08:20:58.541Z,23.35000038
2022-08-02T08:21:59.222Z,23.35000038
2022-08-02T08:22:55.541Z,23.36000061
2022-08-02T08:23:56.304Z,23.37000084
2022-08-02T08:24:52.919Z,23.40999985
2022-08-02T08:25:50.924Z,23.45000076
2022-08-02T08:26:49.440Z,23.45999908
2022-08-02T08:27:53.217Z,23.45999908
2022-08-02T08:29:48.132Z,23.53000069
2022-08-02T08:30:44.349Z,23.54999924
2022-08-02T08:31:44.706Z,23.56999969
2022-08-02T08:32:40.458Z,23.55999947
2022-08-02T08:34:39.676Z,23.59000015
2022-08-02T08:35:35.739Z,23.60000038
2022-08-02T08:36:39.316Z,23.61000061
2022-08-02T08:37:32.955Z,23.62999916
2022-08-02T08:38:36.400Z,23.68000031
2022-08-02T08:39:30.536Z,23.68000031
2022-08-02T08:40:33.615Z,23.73999977
2022-08-02T08:41:27.927Z,23.76000023
2022-08-02T08:42:28.613Z,23.79000092
2022-08-02T08:44:06.873Z,23.84000015
2022-08-02T08:44:46.642Z,23.90999985
2022-08-02T08:45:44.823Z,23.94000053
2022-08-02T08:45:55.868Z,23.94000053
2022-08-02T08:45:55.992Z,23.94000053
2022-08-02T08:46:43.515Z,23.98999977
2022-08-02T08:47:44.727Z,24
2022-08-02T08:49:39.219Z,24.04000092
2022-08-02T08:49:52.565Z,24.04000092
2022-08-02T08:49:52.774Z,24.04000092
2022-08-02T08:50:40.211Z,24.07999992
2022-08-02T08:51:35.981Z,24.12000084
2022-08-02T08:52:36.532Z,24.11000061
2022-08-02T08:53:36.958Z,24.11000061
2022-08-02T08:54:33.047Z,24.11000061
2022-08-02T08:55:28.494Z,24.12000084
2022-08-02T08:56:28.908Z,24.12000084
2022-08-02T08:57:24.433Z,24.12000084
2022-08-02T08:59:21.509Z,24.15999985
2022-08-02T09:00:21.633Z,24.18000031
2022-08-02T09:01:17.493Z,24.19000053
2022-08-02T09:02:22.563Z,24.21999931
2022-08-02T09:02:26.159Z,24.21999931
2022-08-02T09:02:28.591Z,24.21999931
2022-08-02T09:04:12.103Z,24.25
2022-08-02T09:05:12.562Z,24.27000046
2022-08-02T09:06:08.818Z,24.27000046
2022-08-02T09:07:08.877Z,24.26000023
2022-08-02T09:09:07.385Z,24.20000076
2022-08-02T09:10:00.760Z,24.20999908
2022-08-02T09:10:58.329Z,24.22999954
2022-08-02T09:11:56.736Z,24.21999931
2022-08-02T09:13:54.056Z,24.20999908
2022-08-02T09:14:50.416Z,24.20999908
2022-08-02T09:15:49.555Z,24.20999908
2022-08-02T09:16:45.049Z,24.20999908
2022-08-02T09:17:43.583Z,24.20000076
2022-08-02T09:18:43.390Z,24.20999908
2022-08-02T09:19:38.798Z,24.23999977
2022-08-02T09:19:45.855Z,24.23999977
2022-08-02T09:20:39.432Z,24.26000023
2022-08-02T09:21:34.819Z,24.29000092
2022-08-02T09:22:37.581Z,24.27000046
2022-08-02T09:23:30.317Z,24.28000069
2022-08-02T09:24:32.986Z,24.29000092
2022-08-02T09:25:26.004Z,24.29999924
2022-08-02T09:26:28.727Z,24.30999947
2022-08-02T09:27:52.541Z,24.30999947
2022-08-02T09:29:31.985Z,24.32999992
2022-08-02T09:30:31.558Z,24.35000038
2022-08-02T09:31:27.093Z,24.37999916
2022-08-02T09:32:27.566Z,24.36000061
2022-08-02T09:34:24.054Z,24.35000038
2022-08-02T09:35:19.595Z,24.35000038
2022-08-02T09:36:20.019Z,24.35000038
2022-08-02T09:37:15.551Z,24.38999939
2022-08-02T09:39:11.643Z,24.37000084
2022-08-02T09:40:12.277Z,24.37000084
2022-08-02T09:41:08.343Z,24.36000061
2022-08-02T09:42:08.847Z,24.38999939
2022-08-02T09:44:07.723Z,24.40999985
2022-08-02T09:45:01.243Z,24.43000031
2022-08-02T09:46:01.268Z,24.42000008
2022-08-02T09:46:56.720Z,24.43000031
2022-08-02T09:47:56.945Z,24.39999962
2022-08-02T09:48:52.730Z,24.39999962
2022-08-02T09:49:56.713Z,24.38999939
2022-08-02T09:50:52.250Z,24.40999985
2022-08-02T09:51:48.179Z,24.42000008
2022-08-02T09:52:50.977Z,24.42000008
2022-08-02T09:53:44.565Z,24.39999962
2022-08-02T09:54:47.226Z,24.42000008
2022-08-02T09:55:40.109Z,24.40999985
2022-08-02T09:56:43.335Z,24.42000008
2022-08-02T09:57:36.760Z,24.43000031
2022-08-02T09:59:35.055Z,24.43000031
2022-08-02T10:00:50.716Z,24.44000053
2022-08-02T10:00:51.841Z,24.44000053
2022-08-02T10:00:52.479Z,24.44000053
2022-08-02T10:01:37.177Z,24.45000076
2022-08-02T10:01:38.990Z,24.45000076
2022-08-02T10:02:30.638Z,24.5
2022-08-02T10:03:32.949Z,24.51000023
2022-08-02T10:03:37.255Z,24.51000023
2022-08-02T10:03:37.270Z,24.51000023
2022-08-02T10:04:27.150Z,24.53000069
2022-08-02T10:05:22.767Z,24.55999947
2022-08-02T10:06:26.320Z,24.57999992
2022-08-02T10:07:19.667Z,24.54999924
2022-08-02T10:09:16.868Z,24.54000092
2022-08-02T10:10:19.533Z,24.51000023
2022-08-02T10:11:13.218Z,24.51000023
2022-08-02T10:12:15.915Z,24.54000092
2022-08-02T10:13:09.063Z,24.52000046